createdAt,value
2023-04-14T00:02:01.898Z,96563.29
2023-04-14T00:04:34.867Z,96563.36
2023-04-14T00:07:07.368Z,96558.67
2023-04-14T00:09:42.445Z,96557.95
2023-04-14T00:12:14.973Z,96555.36
2023-04-14T00:14:47.495Z,96561.89
2023-04-14T00:17:20.007Z,96564.39
2023-04-14T00:19:52.865Z,96563.10
2023-04-14T00:22:25.865Z,96561.16
2023-04-14T00:24:58.740Z,96563.20
2023-04-14T00:27:31.479Z,96561.69
2023-04-14T00:30:04.323Z,96556.38
2023-04-14T00:32:38.702Z,96554.08
2023-04-14T00:35:12.478Z,96547.34
2023-04-14T00:37:45.005Z,96549.80
2023-04-14T00:40:17.873Z,96554.03
2023-04-14T00:42:50.984Z,96551.45
2023-04-14T00:45:25.813Z,96547.40
2023-04-14T00:48:00.095Z,96548.85
2023-04-14T00:50:34.752Z,96549.08
2023-04-14T00:53:07.233Z,96553.23
2023-04-14T00:55:41.048Z,96551.71
2023-04-14T00:58:15.062Z,96552.55
2023-04-14T01:00:54.107Z,96547.81
2023-04-14T01:03:48.970Z,96545.88
2023-04-14T01:46:14.228Z,96515.54
2023-04-14T01:48:49.694Z,96510.22
2023-04-14T01:51:24.116Z,96512.08
2023-04-14T01:53:58.538Z,96513.54
2023-04-14T01:56:32.308Z,96515.21
2023-04-14T01:59:05.997Z,96514.47
2023-04-14T02:01:37.953Z,96518.08
2023-04-14T02:04:13.831Z,96514.98
2023-04-14T02:06:47.390Z,96514.66
2023-04-14T02:09:20.951Z,96515.48
2023-04-14T02:11:53.842Z,96515.67
2023-04-14T02:14:29.429Z,96512.30
2023-04-14T02:17:03.352Z,96511.80
2023-04-14T02:19:37.412Z,96508.77
2023-04-14T02:22:10.536Z,96511.45
2023-04-14T02:24:43.234Z,96510.91
2023-04-14T02:27:19.170Z,96507.98
2023-04-14T02:29:56.623Z,96506.48
2023-04-14T02:32:31.825Z,96505.73
2023-04-14T02:35:09.890Z,96503.95
2023-04-14T02:37:46.538Z,96500.95
2023-04-14T02:40:23.039Z,96499.55
2023-04-14T02:43:06.286Z,96499.88
2023-04-14T02:45:41.383Z,96499.38
2023-04-14T02:48:18.005Z,96495.81
2023-04-14T02:50:55.118Z,96498.42
2023-04-14T02:53:31.542Z,96500.86
2023-04-14T02:56:19.586Z,96502.33
2023-04-14T02:58:53.172Z,96500.80
2023-04-14T03:01:26.935Z,96497.42
2023-04-14T03:04:02.108Z,96493.33
2023-04-14T03:06:37.176Z,96491.54
2023-04-14T03:09:11.166Z,96487.05
2023-04-14T03:11:46.156Z,96486.92
2023-04-14T03:14:19.830Z,96490.13
2023-04-14T03:16:53.598Z,96489.73
2023-04-14T03:19:28.689Z,96489.41
2023-04-14T03:22:04.120Z,96489.42
2023-04-14T03:24:39.343Z,96482.25
2023-04-14T03:27:17.154Z,96483.33
2023-04-14T03:29:54.432Z,96476.62
2023-04-14T03:32:31.322Z,96479.73
2023-04-14T03:35:07.640Z,96479.73
2023-04-14T03:37:43.500Z,96481.23
2023-04-14T03:40:21.740Z,96479.46
2023-04-14T03:42:55.282Z,96476.96
2023-04-14T03:45:29.933Z,96472.66
2023-04-14T03:48:06.295Z,96469.40
2023-04-14T03:50:45.809Z,96467.23
2023-04-14T03:53:20.383Z,96460.21
2023-04-14T03:55:57.693Z,96461.04
2023-04-14T03:58:36.237Z,96459.98
2023-04-14T04:01:10.403Z,96456.86
2023-04-14T04:03:44.179Z,96460.29
2023-04-14T04:06:17.139Z,96460.95
2023-04-14T04:08:51.735Z,96465.08
2023-04-14T04:11:26.332Z,96464.04
2023-04-14T04:14:02.465Z,96459.83
2023-04-14T04:16:40.148Z,96458.12
2023-04-14T04:19:15.825Z,96456.99
2023-04-14T04:21:54.654Z,96457.86
2023-04-14T04:24:32.864Z,96467.34
2023-04-14T04:27:08.145Z,96470.20
2023-04-14T04:29:49.515Z,96475.39
2023-04-14T04:32:22.735Z,96472.33
2023-04-14T04:34:57.151Z,96473.55
2023-04-14T04:37:30.482Z,96476.17
2023-04-14T04:40:04.277Z,96478.27
2023-04-14T04:42:44.493Z,96480.75
2023-04-14T04:45:36.875Z,96477.66
2023-04-14T04:48:13.990Z,96473.67
2023-04-14T04:50:48.515Z,96480.88
2023-04-14T04:53:21.099Z,96482.53
2023-04-14T04:55:54.061Z,96481.78
2023-04-14T04:58:26.774Z,96484.82
2023-04-14T05:00:59.313Z,96488.36
2023-04-14T05:03:31.958Z,96489.49
2023-04-14T05:06:04.912Z,96487.37
2023-04-14T05:08:37.947Z,96485.73
2023-04-14T05:11:11.019Z,96487.30
2023-04-14T05:13:43.995Z,96487.48
2023-04-14T05:16:18.983Z,96487.15
2023-04-14T05:18:51.584Z,96489.81
2023-04-14T05:21:33.383Z,96485.33
2023-04-14T05:24:06.872Z,96485.41
2023-04-14T05:29:15.379Z,96484.30
2023-04-14T05:31:48.238Z,96477.17
2023-04-14T05:34:21.567Z,96480.67
2023-04-14T05:36:56.932Z,96481.20
2023-04-14T05:39:29.765Z,96477.52
2023-04-14T05:42:05.355Z,96471.52
2023-04-14T05:44:38.130Z,96467.71
2023-04-14T05:47:11.716Z,96464.34
2023-04-14T05:49:42.408Z,96457.98
2023-04-14T05:52:14.938Z,96456.05
2023-04-14T05:54:47.872Z,96453.79
2023-04-14T05:57:21.748Z,96453.96
2023-04-14T05:59:55.876Z,96448.97
2023-04-14T06:02:29.916Z,96442.43
2023-04-14T06:05:07.765Z,96437.89
2023-04-14T06:07:42.587Z,96439.89
2023-04-14T06:10:16.730Z,96438.70
2023-04-14T06:12:49.625Z,96437.14
2023-04-14T06:15:22.410Z,96431.65
2023-04-14T06:17:55.378Z,96426.38
2023-04-14T06:20:29.573Z,96424.95
2023-04-14T06:23:03.508Z,96423.34
2023-04-14T06:25:36.726Z,96420.02
2023-04-14T06:28:09.361Z,96414.39
2023-04-14T06:30:41.846Z,96416.20
2023-04-14T06:33:15.271Z,96413.02
2023-04-14T06:35:47.808Z,96414.46
2023-04-14T06:38:21.017Z,96417.02
2023-04-14T06:40:53.849Z,96415.06
2023-04-14T06:43:29.194Z,96411.98
2023-04-14T06:46:01.784Z,96409.77
2023-04-14T06:48:34.862Z,96410.54
2023-04-14T06:51:10.883Z,96410.59
2023-04-14T06:53:46.155Z,96407.59
2023-04-14T06:56:20.514Z,96410.20
2023-04-14T06:58:53.048Z,96420.92
2023-04-14T07:01:27.433Z,96421.02
2023-04-14T07:04:00.700Z,96426.40
2023-04-14T07:06:33.638Z,96421.18
2023-04-14T07:09:06.739Z,96419.63
2023-04-14T07:11:40.734Z,96419.71
2023-04-14T07:14:16.174Z,96417.26
2023-04-14T07:16:49.128Z,96416.48
2023-04-14T07:19:22.230Z,96414.39
2023-04-14T07:21:55.000Z,96417.40
2023-04-14T07:24:27.432Z,96409.92
2023-04-14T07:27:00.944Z,96409.25
2023-04-14T07:29:32.914Z,96406.23
2023-04-14T07:32:06.432Z,96402.46
2023-04-14T07:34:40.050Z,96401.71
2023-04-14T07:37:10.853Z,96397.30
2023-04-14T07:39:43.640Z,96394.45
2023-04-14T07:42:19.010Z,96387.41
2023-04-14T07:44:53.131Z,96386.52
2023-04-14T07:47:26.551Z,96390.68
2023-04-14T07:49:57.511Z,96393.34
2023-04-14T07:52:30.264Z,96391.21
2023-04-14T07:55:03.452Z,96393.39
2023-04-14T07:57:37.555Z,96394.76
2023-04-14T08:00:12.045Z,96395.48
2023-04-14T08:02:47.536Z,96391.40
2023-04-14T08:05:20.520Z,96398.14
2023-04-14T08:07:57.998Z,96397.55
2023-04-14T08:10:33.368Z,96396.06
2023-04-14T08:13:06.841Z,96402.67
2023-04-14T08:15:37.683Z,96399.70
2023-04-14T08:18:10.339Z,96395.55
2023-04-14T08:20:48.132Z,96392.53
2023-04-14T08:23:21.559Z,96394.95
2023-04-14T08:25:54.217Z,96391.70
2023-04-14T08:28:27.310Z,96384.12
2023-04-14T08:31:00.070Z,96394.59
2023-04-14T08:33:34.408Z,96394.42
2023-04-14T08:36:07.585Z,96379.40
2023-04-14T08:38:40.483Z,96378.40
2023-04-14T08:41:17.056Z,96369.34
2023-04-14T08:43:50.078Z,96361.04
2023-04-14T08:46:25.527Z,96358.11
2023-04-14T08:49:05.383Z,96361.48
2023-04-14T08:51:41.030Z,96360.54
2023-04-14T08:54:14.369Z,96362.31
2023-04-14T08:56:47.541Z,96359.09
2023-04-14T08:59:21.890Z,96352.67
2023-04-14T09:01:57.344Z,96347.02
2023-04-14T09:04:31.274Z,96346.68
2023-04-14T09:07:05.099Z,96343.66
2023-04-14T09:09:40.385Z,96342.20
2023-04-14T09:12:13.286Z,96348.68
2023-04-14T09:14:51.487Z,96340.84
2023-04-14T09:17:24.560Z,96345.20
2023-04-14T09:20:34.706Z,96348.24
2023-04-14T09:22:50.656Z,96347.47
2023-04-14T09:25:24.853Z,96345.52
2023-04-14T09:27:57.802Z,96343.83
2023-04-14T09:30:30.810Z,96349.77
2023-04-14T09:33:05.706Z,96347.02
2023-04-14T09:35:50.294Z,96351.89
2023-04-14T09:38:37.782Z,96346.91
2023-04-14T09:41:11.851Z,96341.21
2023-04-14T09:43:44.699Z,96340.26
2023-04-14T09:46:18.153Z,96338.48
2023-04-14T09:48:58.008Z,96345.55
2023-04-14T09:51:35.461Z,96347.90
2023-04-14T09:54:08.482Z,96349.52
2023-04-14T09:56:47.370Z,96352.53
2023-04-14T09:59:31.258Z,96353.63
2023-04-14T10:02:07.318Z,96343.30
2023-04-14T10:04:41.793Z,96342.48
2023-04-14T10:07:20.535Z,96344.42
2023-04-14T10:09:53.080Z,96336.94
2023-04-14T10:12:27.162Z,96338.20
2023-04-14T10:15:00.573Z,96338.41
2023-04-14T10:17:33.907Z,96334.48
2023-04-14T10:20:08.217Z,96335.81
2023-04-14T10:22:43.172Z,96330.52
2023-04-14T10:25:18.502Z,96326.64
2023-04-14T10:27:52.491Z,96321.34
2023-04-14T10:30:25.602Z,96322.22
2023-04-14T10:33:00.439Z,96321.96
2023-04-14T10:35:44.273Z,96322.02
2023-04-14T10:38:14.952Z,96322.41
2023-04-14T10:40:57.338Z,96318.19
2023-04-14T10:43:33.207Z,96319.09
2023-04-14T10:46:07.569Z,96312.95
2023-04-14T10:48:42.933Z,96313.52
2023-04-14T10:51:18.439Z,96310.03
2023-04-14T10:53:57.430Z,96302.52
2023-04-14T10:56:30.746Z,96307.91
2023-04-14T10:59:04.293Z,96302.95
2023-04-14T11:01:40.565Z,96298.05
2023-04-14T11:04:23.812Z,96299.64
2023-04-14T11:07:00.470Z,96298.88
2023-04-14T11:09:39.827Z,96288.23
2023-04-14T11:15:14.235Z,96290.65
2023-04-14T11:17:47.680Z,96290.92
2023-04-14T11:20:22.554Z,96289.87
2023-04-14T11:22:59.227Z,96289.77
2023-04-14T11:25:32.438Z,96282.71
2023-04-14T11:28:06.635Z,96282.64
2023-04-14T11:30:42.622Z,96278.72
2023-04-14T11:33:22.618Z,96274.03
2023-04-14T11:35:55.692Z,96270.80
2023-04-14T11:38:29.166Z,96270.47
2023-04-14T11:41:03.265Z,96271.27
2023-04-14T11:43:36.121Z,96261.26
2023-04-14T11:46:10.043Z,96262.35
2023-04-14T11:48:42.772Z,96258.40
2023-04-14T11:51:16.337Z,96254.59
2023-04-14T11:53:49.041Z,96253.98
2023-04-14T11:56:23.806Z,96249.08
2023-04-14T11:59:03.743Z,96246.80
2023-04-14T12:01:36.995Z,96240.69
2023-04-14T12:04:10.941Z,96243.89
2023-04-14T12:06:44.215Z,96243.80
2023-04-14T12:09:19.450Z,96247.98
2023-04-14T12:11:59.458Z,96252.45
2023-04-14T12:14:32.574Z,96250.95
2023-04-14T12:17:05.671Z,96254.43
2023-04-14T12:19:38.917Z,96257.49
2023-04-14T12:22:12.458Z,96251.31
2023-04-14T12:24:45.593Z,96246.88
2023-04-14T12:27:22.268Z,96251.58
2023-04-14T12:29:55.361Z,96252.54
2023-04-14T12:32:31.142Z,96251.77
2023-04-14T12:35:04.201Z,96254.73
2023-04-14T12:37:38.986Z,96239.98
2023-04-14T12:40:16.230Z,96233.98
2023-04-14T12:42:54.732Z,96226.45
2023-04-14T12:45:42.070Z,96225.71
2023-04-14T12:48:18.619Z,96230.52
2023-04-14T12:50:52.362Z,96226.27
2023-04-14T12:53:29.479Z,96218.11
2023-04-14T12:56:12.052Z,96220.03
2023-04-14T12:58:47.840Z,96224.77
2023-04-14T13:01:22.361Z,96217.80
2023-04-14T13:03:56.557Z,96219.20
2023-04-14T13:06:29.331Z,96214.05
2023-04-14T13:09:02.289Z,96220.78
2023-04-14T13:11:35.436Z,96212.88
2023-04-14T13:14:07.946Z,96220.20
2023-04-14T13:16:41.702Z,96211.33
2023-04-14T13:19:14.909Z,96213.71
2023-04-14T13:21:47.350Z,96206.98
2023-04-14T13:24:20.093Z,96200.27
2023-04-14T13:26:52.769Z,96199.45
2023-04-14T13:29:25.407Z,96195.77
2023-04-14T13:31:58.157Z,96196.50
2023-04-14T13:34:30.932Z,96194.29
2023-04-14T13:37:04.045Z,96196.20
2023-04-14T13:39:36.737Z,96191.07
2023-04-14T13:42:09.987Z,96190.29
2023-04-14T13:44:42.535Z,96182.64
2023-04-14T13:47:15.666Z,96183.83
2023-04-14T13:49:49.553Z,96172.75
2023-04-14T13:52:22.376Z,96174.16
2023-04-14T13:54:55.196Z,96173.38
2023-04-14T13:57:29.631Z,96177.39
2023-04-14T14:00:02.591Z,96170.98
2023-04-14T14:02:40.324Z,96173.05
2023-04-14T14:05:13.877Z,96173.10
2023-04-14T14:07:47.150Z,96165.98
2023-04-14T14:10:20.435Z,96166.82
2023-04-14T14:12:53.659Z,96159.18
2023-04-14T14:15:26.318Z,96157.96
2023-04-14T14:17:59.108Z,96156.11
2023-04-14T14:20:34.219Z,96154.33
2023-04-14T14:23:07.327Z,96155.84
2023-04-14T14:25:41.204Z,96149.98
2023-04-14T14:28:14.353Z,96151.23
2023-04-14T14:30:46.942Z,96151.05
2023-04-14T14:33:19.564Z,96158.61
2023-04-14T14:35:52.756Z,96157.92
2023-04-14T14:38:25.653Z,96155.13
2023-04-14T14:41:02.005Z,96151.08
2023-04-14T14:43:34.699Z,96150.12
2023-04-14T14:46:07.839Z,96152.19
2023-04-14T14:48:38.998Z,96150.48
2023-04-14T14:51:11.838Z,96147.40
2023-04-14T14:53:44.483Z,96151.48
2023-04-14T14:56:17.133Z,96152.89
2023-04-14T14:58:50.801Z,96153.20
2023-04-14T15:01:23.593Z,96156.92
2023-04-14T15:03:57.376Z,96158.11
2023-04-14T15:06:30.325Z,96148.67
2023-04-14T15:09:03.386Z,96152.29
2023-04-14T15:11:36.416Z,96159.27
2023-04-14T15:14:13.083Z,96152.63
2023-04-14T15:16:47.190Z,96147.67
2023-04-14T15:19:19.816Z,96146.35
2023-04-14T15:21:53.154Z,96149.90
2023-04-14T15:24:27.322Z,96156.95
2023-04-14T15:26:59.853Z,96154.44
2023-04-14T15:29:33.322Z,96156.58
2023-04-14T15:32:06.428Z,96161.59
2023-04-14T15:34:41.782Z,96161.70
2023-04-14T15:37:14.854Z,96161.77
2023-04-14T15:39:50.097Z,96161.80
2023-04-14T15:42:22.826Z,96163.34
2023-04-14T15:44:55.633Z,96159.42
2023-04-14T15:47:28.235Z,96166.89
2023-04-14T15:50:09.265Z,96165.27
2023-04-14T15:52:44.076Z,96160.99
2023-04-14T15:55:16.977Z,96163.36
2023-04-14T15:57:50.750Z,96157.63
2023-04-14T16:00:27.186Z,96159.71
2023-04-14T16:03:02.389Z,96157.15
2023-04-14T16:05:35.756Z,96155.14
2023-04-14T16:08:08.407Z,96150.77
2023-04-14T16:10:45.416Z,96148.04
2023-04-14T16:13:18.297Z,96149.05
2023-04-14T16:15:51.125Z,96146.59
2023-04-14T16:18:23.544Z,96147.09
2023-04-14T16:20:56.863Z,96150.14
2023-04-14T16:23:31.044Z,96147.39
2023-04-14T16:26:03.915Z,96149.89
2023-04-14T16:28:41.988Z,96150.80
2023-04-14T16:31:15.742Z,96145.98
2023-04-14T16:33:48.125Z,96145.81
2023-04-14T16:36:22.250Z,96142.91
2023-04-14T16:38:54.649Z,96142.73
2023-04-14T16:41:27.614Z,96143.03
2023-04-14T16:43:58.624Z,96144.45
2023-04-14T16:46:34.753Z,96145.39
2023-04-14T16:49:08.058Z,96148.50
2023-04-14T16:51:39.985Z,96152.27
2023-04-14T16:54:12.457Z,96151.26
2023-04-14T16:56:45.814Z,96152.89
2023-04-14T16:59:18.348Z,96154.94
2023-04-14T17:01:51.418Z,96157.34
2023-04-14T17:04:24.535Z,96160.34
2023-04-14T17:06:58.111Z,96161.48
2023-04-14T17:09:30.659Z,96162.73
2023-04-14T17:12:03.616Z,96163.33
2023-04-14T17:14:37.175Z,96163.80
2023-04-14T17:17:10.317Z,96164.20
2023-04-14T17:19:43.320Z,96168.52
2023-04-14T17:22:16.630Z,96171.12
2023-04-14T17:24:50.681Z,96171.39
2023-04-14T17:27:24.083Z,96173.12
2023-04-14T17:29:56.966Z,96177.14
2023-04-14T17:32:30.038Z,96178.86
2023-04-14T17:35:04.069Z,96174.99
2023-04-14T17:37:37.497Z,96179.58
2023-04-14T17:40:11.967Z,96180.63
2023-04-14T17:42:45.299Z,96183.33
2023-04-14T17:45:23.205Z,96183.60
2023-04-14T17:47:57.642Z,96186.96
2023-04-14T17:50:31.517Z,96190.02
2023-04-14T17:53:04.249Z,96191.55
2023-04-14T17:55:38.145Z,96190.34
2023-04-14T17:58:11.141Z,96192.64
2023-04-14T18:00:44.490Z,96196.13
2023-04-14T18:03:17.706Z,96206.08
2023-04-14T18:05:50.836Z,96202.55
2023-04-14T18:08:24.043Z,96212.19
2023-04-14T18:10:56.418Z,96214.56
2023-04-14T18:13:29.578Z,96216.05
2023-04-14T18:16:03.111Z,96216.33
2023-04-14T18:18:34.759Z,96214.45
2023-04-14T18:21:08.379Z,96217.55
2023-04-14T18:23:41.864Z,96222.44
2023-04-14T18:28:57.759Z,96223.25
2023-04-14T18:31:28.789Z,96224.56
2023-04-14T18:34:06.089Z,96231.36
2023-04-14T18:36:39.381Z,96229.02
2023-04-14T18:39:13.292Z,96229.50
2023-04-14T18:41:45.849Z,96229.89
2023-04-14T18:44:21.461Z,96224.20
2023-04-14T18:46:54.400Z,96222.67
2023-04-14T18:49:30.157Z,96222.76
2023-04-14T18:52:02.759Z,96225.54
2023-04-14T18:54:36.103Z,96227.04
2023-04-14T18:57:08.808Z,96224.16
2023-04-14T18:59:41.683Z,96223.88
2023-04-14T19:02:17.290Z,96224.14
2023-04-14T19:04:50.471Z,96221.64
2023-04-14T19:07:23.053Z,96221.44
2023-04-14T19:09:55.988Z,96220.71
2023-04-14T19:12:29.182Z,96215.63
2023-04-14T19:15:03.132Z,96217.52
2023-04-14T19:17:38.173Z,96211.91
2023-04-14T19:20:13.519Z,96213.71
2023-04-14T19:22:46.461Z,96214.46
2023-04-14T19:25:20.071Z,96216.90
2023-04-14T19:27:52.873Z,96217.41
2023-04-14T19:30:27.243Z,96222.20
2023-04-14T19:33:00.822Z,96222.52
2023-04-14T19:35:34.266Z,96221.02
2023-04-14T19:38:08.169Z,96218.43
2023-04-14T19:40:44.020Z,96215.66
2023-04-14T19:43:18.976Z,96217.29
2023-04-14T19:45:57.660Z,96220.52
2023-04-14T19:48:33.340Z,96220.51
2023-04-14T19:51:06.369Z,96217.02
2023-04-14T19:53:39.231Z,96216.97
2023-04-14T19:56:13.337Z,96215.93
2023-04-14T19:58:46.257Z,96215.28
2023-04-14T20:01:19.371Z,96220.09
2023-04-14T20:04:04.720Z,96222.96
2023-04-14T20:06:46.109Z,96226.33
2023-04-14T20:09:18.950Z,96230.63
2023-04-14T20:11:53.171Z,96231.94
2023-04-14T20:14:25.603Z,96234.39
2023-04-14T20:16:58.392Z,96238.59
2023-04-14T20:19:31.521Z,96237.84
2023-04-14T20:22:04.396Z,96238.23
2023-04-14T20:24:37.724Z,96241.73
2023-04-14T20:27:11.495Z,96243.55
2023-04-14T20:29:44.540Z,96247.86
2023-04-14T20:32:17.398Z,96249.23
2023-04-14T20:34:50.118Z,96252.95
2023-04-14T20:37:25.564Z,96253.80
2023-04-14T20:40:00.288Z,96259.60
2023-04-14T20:42:33.326Z,96255.24
2023-04-14T20:45:11.429Z,96253.10
2023-04-14T20:47:48.419Z,96260.61
2023-04-14T20:50:21.567Z,96255.06
2023-04-14T20:52:54.664Z,96252.42
2023-04-14T20:55:27.065Z,96252.07
2023-04-14T20:57:59.850Z,96249.88
2023-04-14T21:00:34.345Z,96243.42
2023-04-14T21:03:07.772Z,96244.31
2023-04-14T21:05:38.738Z,96243.88
2023-04-14T21:08:12.895Z,96248.52
2023-04-14T21:11:15.161Z,96249.45
2023-04-14T21:15:31.268Z,96255.34
2023-04-14T21:16:31.981Z,96254.89
2023-04-14T21:19:05.926Z,96251.94
2023-04-14T21:21:39.666Z,96256.79
2023-04-14T21:24:13.032Z,96254.19
2023-04-14T21:26:45.665Z,96247.55
2023-04-14T21:29:18.555Z,96254.95
2023-04-14T21:31:51.322Z,96255.92
2023-04-14T21:34:27.743Z,96248.46
2023-04-14T21:37:00.950Z,96252.48
2023-04-14T21:39:35.545Z,96256.02
2023-04-14T21:42:08.377Z,96267.91
2023-04-14T21:44:41.721Z,96273.13
2023-04-14T21:47:17.440Z,96272.38
2023-04-14T21:49:50.144Z,96265.33
2023-04-14T21:52:25.598Z,96262.16
2023-04-14T21:54:59.094Z,96265.52
2023-04-14T21:57:48.565Z,96274.94
2023-04-14T22:00:22.364Z,96272.89
2023-04-14T22:02:55.922Z,96270.16
2023-04-14T22:05:30.675Z,96268.20
2023-04-14T22:08:03.448Z,96267.80
2023-04-14T22:10:43.499Z,96277.09
2023-04-14T22:13:19.322Z,96287.19
2023-04-14T22:15:52.035Z,96284.64
2023-04-14T22:18:25.814Z,96279.31
2023-04-14T22:20:59.096Z,96282.83
2023-04-14T22:23:32.155Z,96281.41
2023-04-14T22:26:05.262Z,96282.20
2023-04-14T22:28:37.910Z,96290.35
2023-04-14T22:31:11.067Z,96291.34
2023-04-14T22:33:44.783Z,96283.73
2023-04-14T22:36:15.388Z,96288.41
2023-04-14T22:38:48.837Z,96287.71
2023-04-14T22:41:21.536Z,96290.08
2023-04-14T22:43:54.160Z,96294.21
2023-04-14T22:46:28.471Z,96301.98
2023-04-14T22:49:01.584Z,96307.45
2023-04-14T22:51:35.697Z,96304.48
2023-04-14T22:54:08.501Z,96303.74
2023-04-14T22:56:42.888Z,96305.16
2023-04-14T22:59:17.776Z,96311.73
2023-04-14T23:01:51.713Z,96313.73
2023-04-14T23:04:25.758Z,96310.95
2023-04-14T23:06:58.802Z,96314.48
2023-04-14T23:09:31.641Z,96316.75
2023-04-14T23:12:07.570Z,96309.95
2023-04-14T23:14:41.542Z,96301.52
2023-04-14T23:17:14.541Z,96299.74
2023-04-14T23:19:47.380Z,96297.34
2023-04-14T23:22:21.080Z,96296.79
2023-04-14T23:24:53.853Z,96293.09
2023-04-14T23:27:26.791Z,96288.15
2023-04-14T23:29:59.540Z,96289.42
2023-04-14T23:32:32.156Z,96281.73
2023-04-14T23:35:05.396Z,96270.41
2023-04-14T23:37:38.421Z,96264.27
2023-04-14T23:40:14.574Z,96270.48
2023-04-14T23:42:47.236Z,96277.26
2023-04-14T23:45:20.153Z,96288.93
2023-04-14T23:47:54.348Z,96302.48
2023-04-14T23:51:00.725Z,96303.26
2023-04-14T23:53:20.813Z,96291.52
2023-04-14T23:55:57.160Z,96297.90
2023-04-14T23:58:30.323Z,96313.60
